Time;durP1;ratioP1;P1;durP2;ratioP2;P2;SDS_P1;SDS_P2;PMS_P1;PMS_P2;Temp;Humidity;BMP_temperature;BMP_pressure;BME280_temperature;BME280_humidity;BME280_pressure;Samples;Min_cycle;Max_cycle;Signal;HPM_P1;HPM_P2
2023/08/25 00:01:51;;;;;;;;;;;;;;;19.75;nan;99866.16;4976993;28;19914;-84
2023/08/25 00:04:16;;;;;;;;;;;;;;;19.75;nan;99883.06;4973596;28;19972;-85
2023/08/25 00:06:41;;;;;;;;;;;;;;;19.76;nan;99894.59;4968311;28;19997;-84
2023/08/25 00:09:07;;;;;;;;;;;;;;;19.79;nan;99899.53;4956820;28;19918;-84
2023/08/25 00:11:32;;;;;;;;;;;;;;;19.81;nan;99898.25;4956730;28;20009;-85
2023/08/25 00:13:57;;;;;;;;;;;;;;;19.83;nan;99908.75;4975920;28;19924;-85
2023/08/25 00:16:22;;;;;;;;;;;;;;;;;;4973662;28;19914;-84
2023/08/25 00:18:48;;;;;;;;;;;;;;;19.75;nan;99901.03;4973256;28;19922;-84
2023/08/25 00:21:13;;;;;;;;;;;;;;;19.71;nan;99893.44;4966447;28;19914;-85
2023/08/25 00:23:38;;;;;;;;;;;;;;;19.75;nan;99887.63;4976468;28;19941;-84
2023/08/25 00:26:03;;;;;;;;;;;;;;;19.81;nan;99889.41;4974228;28;19914;-85
2023/08/25 00:28:28;;;;;;;;;;;;;;;19.84;nan;99886.25;4968221;28;19949;-85
2023/08/25 00:30:54;;;;;;;;;;;;;;;19.81;nan;99895.59;4966942;28;20036;-86
2023/08/25 00:33:20;;;;;;;;;;;;;;;19.82;nan;99901.75;4957001;28;19914;-85
2023/08/25 00:35:45;;;;;;;;;;;;;;;19.88;nan;99892.81;4966477;28;19973;-84
2023/08/25 00:38:11;;;;;;;;;;;;;;;19.95;nan;99888.16;4974928;28;19991;-85
2023/08/25 00:40:36;;;;;;;;;;;;;;;20.02;nan;99904.16;4976210;28;19914;-84
2023/08/25 00:43:03;;;;;;;;;;;;;;;20.12;nan;99889.13;4971833;28;19915;-85
2023/08/25 00:45:28;;;;;;;;;;;;;;;20.20;nan;99896.03;4976133;28;20353;-84
2023/08/25 00:47:53;;;;;;;;;;;;;;;20.29;nan;99889.28;4976666;28;19914;-84
2023/08/25 00:50:19;;;;;;;;;;;;;;;20.40;nan;99874.22;4963718;28;19918;-84
2023/08/25 00:52:44;;;;;;;;;;;;;;;20.49;nan;99888.13;4976524;28;19938;-84
2023/08/25 00:55:09;;;;;;;;;;;;;;;20.53;nan;99892.00;4958222;28;19914;-84
2023/08/25 00:57:35;;;;;;;;;;;;;;;20.56;nan;99889.69;4957488;28;19965;-84
2023/08/25 01:00:00;;;;;;;;;;;;;;;20.62;nan;99887.09;4956820;29;19923;-84
2023/08/25 01:02:25;;;;;;;;;;;;;;;20.69;nan;99891.34;4956506;28;20422;-84
2023/08/25 01:04:50;;;;;;;;;;;;;;;20.76;nan;99899.25;4961507;29;19918;-84
2023/08/25 01:07:16;;;;;;;;;;;;;;;20.83;nan;99899.94;4971239;28;19917;-84
2023/08/25 01:09:41;;;;;;;;;;;;;;;20.88;nan;99886.66;4995333;28;19918;-84
2023/08/25 01:12:12;;;;;;;;;;;;;;;20.90;nan;99879.16;4989644;28;19914;-84
2023/08/25 01:14:40;;;;;;;;;;;;;;;;;;4981992;28;19957;-84
2023/08/25 01:17:22;;;;;;;;;;;;;;;20.81;nan;99906.63;4978148;28;19914;-84
2023/08/25 01:20:00;;;;;;;;;;;;;;;20.73;nan;99905.09;4991777;28;19928;-85
2023/08/25 01:22:44;;;;;;;;;;;;;;;20.72;nan;99892.72;4974425;28;20039;-85
2023/08/25 01:25:29;;;;;;;;;;;;;;;20.72;nan;99893.53;4973245;28;19918;-84
2023/08/25 01:27:56;;;;;;;;;;;;;;;20.73;nan;99895.16;4955565;29;19914;-85
2023/08/25 01:30:31;;;;;;;;;;;;;;;20.76;nan;99875.06;4960829;28;19980;-85
2023/08/25 01:33:05;;;;;;;;;;;;;;;20.77;nan;99911.66;4972028;28;19937;-85
2023/08/25 01:35:38;;;;;;;;;;;;;;;20.75;nan;99886.88;4974639;28;20523;-84
2023/08/25 01:38:11;;;;;;;;;;;;;;;20.77;nan;99890.97;4972949;28;20360;-84
2023/08/25 01:40:36;;;;;;;;;;;;;;;;;;4972283;28;19922;-85
2023/08/25 01:43:02;;;;;;;;;;;;;;;20.78;nan;99886.41;4965637;28;19973;-85
2023/08/25 01:45:28;;;;;;;;;;;;;;;20.79;nan;99871.94;4974819;28;19918;-85
2023/08/25 01:47:54;;;;;;;;;;;;;;;20.79;nan;99867.38;4973238;28;19914;-85
2023/08/25 01:50:19;;;;;;;;;;;;;;;;;;4971147;28;19918;-85
2023/08/25 01:52:44;;;;;;;;;;;;;;;20.79;nan;99872.75;4987833;28;19921;-85
2023/08/25 01:55:10;;;;;;;;;;;;;;;20.79;nan;99871.94;4987087;28;20376;-85
2023/08/25 01:57:35;;;;;;;;;;;;;;;20.81;nan;99858.25;4967177;28;19957;-85
2023/08/25 02:00:00;;;;;;;;;;;;;;;20.82;nan;99876.84;4970107;28;19922;-85
2023/08/25 02:02:25;;;;;;;;;;;;;;;20.83;nan;99875.75;4972731;28;20392;-85
2023/08/25 02:04:50;;;;;;;;;;;;;;;20.82;nan;99879.50;4987862;28;19930;-85
2023/08/25 02:07:15;;;;;;;;;;;;;;;20.82;nan;99886.78;4972529;28;20266;-85
2023/08/25 02:09:41;;;;;;;;;;;;;;;20.78;nan;99870.28;4971545;28;19957;-85
2023/08/25 02:12:06;;;;;;;;;;;;;;;20.71;nan;99874.97;4970546;28;20329;-85
2023/08/25 02:14:32;;;;;;;;;;;;;;;20.64;nan;99869.72;4968339;28;19915;-85
2023/08/25 02:16:57;;;;;;;;;;;;;;;20.59;nan;99866.91;4953574;28;20050;-85
2023/08/25 02:19:22;;;;;;;;;;;;;;;20.57;nan;99869.84;4952849;29;19919;-85
2023/08/25 02:21:48;;;;;;;;;;;;;;;;;;4954460;28;19953;-85
2023/08/25 02:24:13;;;;;;;;;;;;;;;20.60;nan;99855.13;4953168;28;19922;-84
2023/08/25 02:26:38;;;;;;;;;;;;;;;20.66;nan;99861.41;4955077;28;19925;-85
2023/08/25 02:29:03;;;;;;;;;;;;;;;;;;4960672;28;20367;-85
2023/08/25 02:31:28;;;;;;;;;;;;;;;20.73;nan;99819.94;4964232;28;19981;-85
2023/08/25 02:33:53;;;;;;;;;;;;;;;20.73;nan;99862.13;4953048;28;19914;-85
2023/08/25 02:36:19;;;;;;;;;;;;;;;20.70;nan;99863.41;4951376;28;19914;-85
2023/08/25 02:38:44;;;;;;;;;;;;;;;20.65;nan;99868.66;4952591;28;19960;-85
2023/08/25 02:41:09;;;;;;;;;;;;;;;20.61;nan;99875.56;4951975;29;20345;-85
2023/08/25 02:43:34;;;;;;;;;;;;;;;;;;4953239;28;19949;-85
2023/08/25 02:45:59;;;;;;;;;;;;;;;20.56;nan;99862.00;4963878;28;20142;-85
2023/08/25 02:48:25;;;;;;;;;;;;;;;20.56;nan;99851.25;4964378;28;19918;-85
2023/08/25 02:50:50;;;;;;;;;;;;;;;20.57;nan;99859.09;4960628;28;19914;-85
2023/08/25 02:53:15;;;;;;;;;;;;;;;;;;4975239;28;19921;-85
2023/08/25 02:55:40;;;;;;;;;;;;;;;20.55;nan;99844.25;4978883;28;19921;-85
2023/08/25 02:58:05;;;;;;;;;;;;;;;20.53;nan;99836.41;4979754;28;19930;-85
2023/08/25 03:00:31;;;;;;;;;;;;;;;20.52;nan;99824.03;4977444;28;19941;-85
2023/08/25 03:02:56;;;;;;;;;;;;;;;20.49;nan;99819.13;4977180;28;19922;-85
2023/08/25 03:05:21;;;;;;;;;;;;;;;20.46;nan;99819.59;4971593;28;19914;-85
2023/08/25 03:07:47;;;;;;;;;;;;;;;20.45;nan;99812.59;4979786;28;19922;-85
2023/08/25 03:10:12;;;;;;;;;;;;;;;20.44;nan;99810.94;4978141;28;19914;-84
2023/08/25 03:12:37;;;;;;;;;;;;;;;20.42;nan;99801.50;4980119;28;20360;-85
2023/08/25 03:15:03;;;;;;;;;;;;;;;20.39;nan;99801.97;4980221;28;20362;-85
2023/08/25 03:17:28;;;;;;;;;;;;;;;20.37;nan;99794.94;4979741;28;19914;-85
2023/08/25 03:19:53;;;;;;;;;;;;;;;20.38;nan;99795.78;4970157;28;19923;-85
2023/08/25 03:22:19;;;;;;;;;;;;;;;20.35;nan;99791.69;4980771;28;19914;-85
2023/08/25 03:24:44;;;;;;;;;;;;;;;20.33;nan;99793.81;4980766;28;20364;-85
2023/08/25 03:27:10;;;;;;;;;;;;;;;20.30;nan;99785.38;4980369;28;19918;-84
2023/08/25 03:29:35;;;;;;;;;;;;;;;20.22;nan;99783.88;4979450;28;19921;-85
2023/08/25 03:32:00;;;;;;;;;;;;;;;20.17;nan;99788.31;4964563;28;19915;-85
2023/08/25 03:34:25;;;;;;;;;;;;;;;20.13;nan;99783.38;4964422;28;19925;-85
2023/08/25 03:36:50;;;;;;;;;;;;;;;;;;4969895;28;19942;-84
2023/08/25 03:39:19;;;;;;;;;;;;;;;20.11;nan;99779.31;4977341;28;19949;-85
2023/08/25 03:41:44;;;;;;;;;;;;;;;20.06;nan;99771.94;4978689;28;19921;-84
2023/08/25 03:44:09;;;;;;;;;;;;;;;20.03;nan;99776.97;4978186;28;19945;-85
2023/08/25 03:46:35;;;;;;;;;;;;;;;20.00;nan;99762.16;4979010;28;20448;-85
2023/08/25 03:49:00;;;;;;;;;;;;;;;20.01;nan;99758.41;4992315;28;19914;-85
2023/08/25 03:51:25;;;;;;;;;;;;;;;20.00;nan;99762.16;4975072;28;19925;-85
2023/08/25 03:53:50;;;;;;;;;;;;;;;;;;4959595;28;20380;-85
2023/08/25 03:56:15;;;;;;;;;;;;;;;19.96;nan;99733.34;4975077;28;20377;-85
2023/08/25 03:58:41;;;;;;;;;;;;;;;19.91;nan;99736.72;4959210;28;20075;-84
2023/08/25 04:01:06;;;;;;;;;;;;;;;19.89;nan;99722.72;4959029;29;19915;-84
2023/08/25 04:03:31;;;;;;;;;;;;;;;19.88;nan;99721.09;4959365;29;19920;-84
2023/08/25 04:05:56;;;;;;;;;;;;;;;19.85;nan;99710.81;4967062;28;19914;-84
2023/08/25 04:08:22;;;;;;;;;;;;;;;19.81;nan;99729.25;4963801;28;20443;-85
2023/08/25 04:10:47;;;;;;;;;;;;;;;19.74;nan;99715.13;4957182;28;19915;-84
2023/08/25 04:13:12;;;;;;;;;;;;;;;19.65;nan;99711.13;4957620;28;20005;-84
2023/08/25 04:15:38;;;;;;;;;;;;;;;19.59;nan;99717.38;4957569;28;19972;-84
2023/08/25 04:18:04;;;;;;;;;;;;;;;19.54;nan;99731.50;4955212;28;20277;-85
2023/08/25 04:20:29;;;;;;;;;;;;;;;19.53;nan;99733.34;4956637;28;19930;-85
2023/08/25 04:22:55;;;;;;;;;;;;;;;;;;4966493;28;19918;-85
2023/08/25 04:25:20;;;;;;;;;;;;;;;19.60;nan;99764.63;4968800;28;20340;-85
2023/08/25 04:27:45;;;;;;;;;;;;;;;19.66;nan;99755.66;4974373;28;19921;-85
2023/08/25 04:30:10;;;;;;;;;;;;;;;19.78;nan;99758.38;4970800;28;19925;-84
2023/08/25 04:32:35;;;;;;;;;;;;;;;19.87;nan;99752.44;4957704;28;20408;-84
2023/08/25 04:35:01;;;;;;;;;;;;;;;19.99;nan;99791.91;4956953;28;19952;-84
2023/08/25 04:37:26;;;;;;;;;;;;;;;20.07;nan;99827.28;4956409;28;20291;-85
2023/08/25 04:39:52;;;;;;;;;;;;;;;20.14;nan;99860.19;4968614;28;19950;-85
2023/08/25 04:42:17;;;;;;;;;;;;;;;20.18;nan;99882.00;4979009;28;19915;-85
2023/08/25 04:44:42;;;;;;;;;;;;;;;20.26;nan;99854.00;4956005;28;20009;-85
2023/08/25 04:47:08;;;;;;;;;;;;;;;20.34;nan;99843.75;4955197;28;19914;-85
2023/08/25 04:49:33;;;;;;;;;;;;;;;20.43;nan;99852.28;4965535;28;20044;-85
2023/08/25 04:51:59;;;;;;;;;;;;;;;20.51;nan;99860.00;4958015;28;19914;-84
2023/08/25 04:54:24;;;;;;;;;;;;;;;20.52;nan;99845.53;4957991;28;20411;-84
2023/08/25 04:56:49;;;;;;;;;;;;;;;20.40;nan;99820.50;4965269;28;19922;-83
2023/08/25 04:59:14;;;;;;;;;;;;;;;20.27;nan;99741.03;4974196;28;19922;-84
2023/08/25 05:01:40;;;;;;;;;;;;;;;20.19;nan;99690.38;4976253;28;19918;-84
2023/08/25 05:04:05;;;;;;;;;;;;;;;20.03;nan;99670.44;4975632;28;19914;-84
2023/08/25 05:06:30;;;;;;;;;;;;;;;20.02;nan;99631.25;4975574;28;19921;-84
2023/08/25 05:08:56;;;;;;;;;;;;;;;19.97;nan;99590.06;4975433;28;19914;-85
2023/08/25 05:11:22;;;;;;;;;;;;;;;19.85;nan;99609.66;4991150;28;19934;-84
2023/08/25 05:13:47;;;;;;;;;;;;;;;19.81;nan;99608.53;4975143;28;19914;-86
2023/08/25 05:16:15;;;;;;;;;;;;;;;19.73;nan;99611.53;4955816;28;19914;-84
2023/08/25 05:18:40;;;;;;;;;;;;;;;19.69;nan;99627.31;4957347;28;20009;-85
2023/08/25 05:21:05;;;;;;;;;;;;;;;19.57;nan;99655.97;4957387;28;20341;-85
2023/08/25 05:23:30;;;;;;;;;;;;;;;19.39;nan;99723.06;4957160;29;20324;-85
2023/08/25 05:25:55;;;;;;;;;;;;;;;19.26;nan;99751.72;4957502;28;19925;-84
2023/08/25 05:28:21;;;;;;;;;;;;;;;19.25;nan;99755.41;4963900;28;20315;-85
2023/08/25 05:30:46;;;;;;;;;;;;;;;19.29;nan;99777.25;4966263;28;19914;-85
2023/08/25 05:33:12;;;;;;;;;;;;;;;19.29;nan;99799.50;4960544;28;20089;-84
2023/08/25 05:35:37;;;;;;;;;;;;;;;19.33;nan;99817.81;4958253;28;19922;-84
2023/08/25 05:38:02;;;;;;;;;;;;;;;19.35;nan;99866.66;4955423;29;19918;-85
2023/08/25 05:40:28;;;;;;;;;;;;;;;19.35;nan;99918.41;4956259;28;19954;-85
2023/08/25 05:42:53;;;;;;;;;;;;;;;19.39;nan;99937.56;4955842;28;19918;-84
2023/08/25 05:45:18;;;;;;;;;;;;;;;19.46;nan;99944.47;4986166;28;19919;-85
2023/08/25 05:47:43;;;;;;;;;;;;;;;19.52;nan;99956.16;4971139;28;19965;-85
2023/08/25 05:50:09;;;;;;;;;;;;;;;19.57;nan;99961.69;4977782;28;20626;-84
2023/08/25 05:52:34;;;;;;;;;;;;;;;19.61;nan;99978.94;4973216;28;20288;-85
2023/08/25 05:54:59;;;;;;;;;;;;;;;19.64;nan;99965.09;4975475;28;19921;-83
2023/08/25 05:57:24;;;;;;;;;;;;;;;19.68;nan;99973.53;4974601;28;20013;-86
2023/08/25 05:59:50;;;;;;;;;;;;;;;19.70;nan;99971.47;4976782;28;19978;-85
2023/08/25 06:02:18;;;;;;;;;;;;;;;19.72;nan;99967.50;4972409;28;20359;-85
2023/08/25 06:04:43;;;;;;;;;;;;;;;19.72;nan;99964.81;4972063;28;19922;-84
2023/08/25 06:07:09;;;;;;;;;;;;;;;19.72;nan;99955.97;4977804;28;19914;-84
2023/08/25 06:09:34;;;;;;;;;;;;;;;19.74;nan;99961.91;4976536;28;19914;-84
2023/08/25 06:11:59;;;;;;;;;;;;;;;19.74;nan;99961.91;4991587;28;20279;-84
2023/08/25 06:14:25;;;;;;;;;;;;;;;19.75;nan;99925.19;4991698;28;20292;-84
2023/08/25 06:16:50;;;;;;;;;;;;;;;19.75;nan;99909.09;4978655;28;19933;-86
2023/08/25 06:19:15;;;;;;;;;;;;;;;;;;4970712;28;20288;-86
2023/08/25 06:21:41;;;;;;;;;;;;;;;19.68;nan;99850.16;4975311;28;19918;-85
2023/08/25 06:24:11;;;;;;;;;;;;;;;19.64;nan;99844.41;4958525;28;19918;-85
2023/08/25 06:26:37;;;;;;;;;;;;;;;19.55;nan;99840.41;4958454;28;20328;-85
2023/08/25 06:29:02;;;;;;;;;;;;;;;19.45;nan;99827.56;4954343;28;19915;-85
2023/08/25 06:31:30;;;;;;;;;;;;;;;19.40;nan;99789.03;4957890;28;19918;-85
2023/08/25 06:33:55;;;;;;;;;;;;;;;19.31;nan;99801.97;4960947;28;20191;-84
2023/08/25 06:36:21;;;;;;;;;;;;;;;;;;4966373;28;20255;-84
2023/08/25 06:38:46;;;;;;;;;;;;;;;19.19;nan;99776.97;4973700;28;20395;-85
2023/08/25 06:41:12;;;;;;;;;;;;;;;19.13;nan;99813.53;4990448;28;19922;-84
2023/08/25 06:43:38;;;;;;;;;;;;;;;19.10;nan;99816.66;4975283;28;20470;-84
2023/08/25 06:46:03;;;;;;;;;;;;;;;19.08;nan;99808.03;4990211;28;19914;-84
2023/08/25 06:48:28;;;;;;;;;;;;;;;19.07;nan;99807.22;4974781;28;20001;-85
2023/08/25 06:50:54;;;;;;;;;;;;;;;19.08;nan;99802.66;4988469;28;19925;-84
2023/08/25 06:53:19;;;;;;;;;;;;;;;19.06;nan;99772.59;4962612;28;19925;-85
2023/08/25 06:55:44;;;;;;;;;;;;;;;19.04;nan;99772.84;4957331;28;19937;-86
2023/08/25 06:58:12;;;;;;;;;;;;;;;19.01;nan;99781.31;4956962;28;19925;-87
2023/08/25 07:00:38;;;;;;;;;;;;;;;19.00;nan;99795.75;4958239;28;19933;-85
2023/08/25 07:03:03;;;;;;;;;;;;;;;;;;4959556;28;20392;-85
2023/08/25 07:05:28;;;;;;;;;;;;;;;18.99;nan;99793.28;4958378;28;19922;-85
2023/08/25 07:07:54;;;;;;;;;;;;;;;18.98;nan;99783.63;4973350;28;19914;-85
2023/08/25 07:10:20;;;;;;;;;;;;;;;19.00;nan;99789.59;4972683;28;19925;-85
2023/08/25 07:12:45;;;;;;;;;;;;;;;19.04;nan;99790.75;4995382;28;19914;-86
2023/08/25 07:15:10;;;;;;;;;;;;;;;19.05;nan;99787.03;4994196;28;20026;-86
2023/08/25 07:17:36;;;;;;;;;;;;;;;19.06;nan;99756.50;4993079;28;19914;-84
2023/08/25 07:20:01;;;;;;;;;;;;;;;19.05;nan;99787.03;4992683;28;19998;-83
2023/08/25 07:22:26;;;;;;;;;;;;;;;19.05;nan;99840.63;4990272;28;19953;-83
2023/08/25 07:24:53;;;;;;;;;;;;;;;19.08;nan;99877.69;4967529;28;19918;-83
2023/08/25 07:27:21;;;;;;;;;;;;;;;19.16;nan;99858.63;4955796;29;19914;-84
2023/08/25 07:29:47;;;;;;;;;;;;;;;19.22;nan;99825.56;4958143;28;20300;-84
2023/08/25 07:32:12;;;;;;;;;;;;;;;19.25;nan;99813.59;4964799;28;19914;-83
2023/08/25 07:34:37;;;;;;;;;;;;;;;19.27;nan;99792.72;4956885;28;20345;-84
2023/08/25 07:37:03;;;;;;;;;;;;;;;19.30;nan;99785.03;4955282;29;20365;-84
2023/08/25 07:39:29;;;;;;;;;;;;;;;19.36;nan;99783.34;4960940;28;19928;-84
2023/08/25 07:41:54;;;;;;;;;;;;;;;19.43;nan;99773.31;4969726;28;19926;-83
2023/08/25 07:44:20;;;;;;;;;;;;;;;19.58;nan;99780.13;4958856;28;19942;-83
2023/08/25 07:46:45;;;;;;;;;;;;;;;19.73;nan;99784.06;4964186;28;19933;-84
2023/08/25 07:49:10;;;;;;;;;;;;;;;19.98;nan;99795.66;4967774;28;19922;-83
2023/08/25 07:51:38;;;;;;;;;;;;;;;20.26;nan;99816.41;4977014;28;19914;-83
2023/08/25 07:54:04;;;;;;;;;;;;;;;20.53;nan;99851.72;4990879;28;19968;-83
2023/08/25 07:56:29;;;;;;;;;;;;;;;20.93;nan;99862.56;4966471;28;19918;-83
2023/08/25 07:58:55;;;;;;;;;;;;;;;21.45;nan;99858.25;4991418;28;19924;-84
2023/08/25 08:01:20;;;;;;;;;;;;;;;21.88;nan;99867.63;4977182;28;19917;-83
2023/08/25 08:03:45;;;;;;;;;;;;;;;22.21;nan;99877.66;4979963;28;20386;-84
2023/08/25 08:06:11;;;;;;;;;;;;;;;22.48;nan;99867.06;4981658;28;19918;-84
2023/08/25 08:08:37;;;;;;;;;;;;;;;22.63;nan;99882.63;4983684;28;19921;-84
2023/08/25 08:11:03;;;;;;;;;;;;;;;22.80;nan;99888.00;4981132;28;20006;-84
2023/08/25 08:13:28;;;;;;;;;;;;;;;22.86;nan;99895.09;4979903;28;19914;-84
2023/08/25 08:15:54;;;;;;;;;;;;;;;22.87;nan;99907.50;4986852;28;19914;-84
2023/08/25 08:18:19;;;;;;;;;;;;;;;22.84;nan;99916.09;4986663;28;19914;-84
2023/08/25 08:20:45;;;;;;;;;;;;;;;22.82;nan;99915.53;4983715;28;19918;-84
2023/08/25 08:23:11;;;;;;;;;;;;;;;22.65;nan;99916.34;4982734;28;19917;-84
2023/08/25 08:25:36;;;;;;;;;;;;;;;22.64;nan;99905.81;4974935;28;19993;-84
2023/08/25 08:28:01;;;;;;;;;;;;;;;;;;4977756;28;20346;-84
2023/08/25 08:30:26;;;;;;;;;;;;;;;22.47;nan;99909.31;4974043;28;19926;-84
2023/08/25 08:32:52;;;;;;;;;;;;;;;;;;4971972;28;19918;-83
2023/08/25 08:35:18;;;;;;;;;;;;;;;22.25;nan;99897.66;4980694;28;19921;-84
2023/08/25 08:37:43;;;;;;;;;;;;;;;22.21;nan;99904.59;4980243;28;19918;-84
2023/08/25 08:40:15;;;;;;;;;;;;;;;22.21;nan;99907.28;4981512;28;19925;-84
2023/08/25 08:42:40;;;;;;;;;;;;;;;;;;4980816;28;19921;-83
2023/08/25 08:45:09;;;;;;;;;;;;;;;22.10;nan;99902.78;4979245;28;19918;-83
2023/08/25 08:47:35;;;;;;;;;;;;;;;22.04;nan;99897.28;4989572;28;19952;-84
2023/08/25 08:50:00;;;;;;;;;;;;;;;21.97;nan;99909.25;4984567;28;20307;-85
2023/08/25 08:52:27;;;;;;;;;;;;;;;22.09;nan;99922.66;4980935;28;19992;-84
2023/08/25 08:54:58;;;;;;;;;;;;;;;22.58;nan;99926.47;4983794;28;19914;-83
2023/08/25 08:57:27;;;;;;;;;;;;;;;23.30;nan;99932.91;4974224;28;19926;-83
2023/08/25 08:59:52;;;;;;;;;;;;;;;24.04;nan;99937.03;4981786;28;20290;-83
2023/08/25 09:02:21;;;;;;;;;;;;;;;24.53;nan;99934.25;4996829;28;20004;-84
2023/08/25 09:04:47;;;;;;;;;;;;;;;24.83;nan;99909.28;4981649;28;19921;-85
2023/08/25 09:07:12;;;;;;;;;;;;;;;24.77;nan;99913.88;4979953;28;20028;-84
2023/08/25 09:09:40;;;;;;;;;;;;;;;24.81;nan;99908.72;4979388;28;19918;-83
2023/08/25 09:12:05;;;;;;;;;;;;;;;24.92;nan;99891.50;4967616;28;20320;-83
2023/08/25 09:14:31;;;;;;;;;;;;;;;25.28;nan;99901.72;4977145;28;19914;-84
2023/08/25 09:16:57;;;;;;;;;;;;;;;25.82;nan;99901.34;4992016;28;19994;-84
2023/08/25 09:19:23;;;;;;;;;;;;;;;26.21;nan;99898.16;4991197;28;19941;-83
2023/08/25 09:21:48;;;;;;;;;;;;;;;26.61;nan;99886.50;4977239;28;20331;-83
2023/08/25 09:24:18;;;;;;;;;;;;;;;27.11;nan;99900.19;4976014;28;19965;-83
2023/08/25 09:26:43;;;;;;;;;;;;;;;27.24;nan;99905.03;4971132;28;19969;-84
2023/08/25 09:29:10;;;;;;;;;;;;;;;27.32;nan;99914.53;4975270;28;19917;-83
2023/08/25 09:31:36;;;;;;;;;;;;;;;27.42;nan;99894.69;4974846;28;19922;-84
2023/08/25 09:34:03;;;;;;;;;;;;;;;27.35;nan;99856.16;4968649;28;19921;-84
2023/08/25 09:36:29;;;;;;;;;;;;;;;27.42;nan;99864.81;4974766;28;19976;-84
2023/08/25 09:38:54;;;;;;;;;;;;;;;27.80;nan;99865.13;4976281;28;20444;-84
2023/08/25 09:41:29;;;;;;;;;;;;;;;28.37;nan;99853.53;4986792;28;19918;-84
2023/08/25 09:44:03;;;;;;;;;;;;;;;28.99;nan;99850.97;4972063;28;19914;-84
2023/08/25 09:46:32;;;;;;;;;;;;;;;29.02;nan;99844.94;4976432;28;20288;-84
2023/08/25 09:49:01;;;;;;;;;;;;;;;28.47;nan;99827.34;4968762;28;19914;-84
2023/08/25 09:51:47;;;;;;;;;;;;;;;28.01;nan;99861.19;4968581;28;19950;-83
2023/08/25 09:54:14;;;;;;;;;;;;;;;27.38;nan;99850.97;4974242;28;19914;-84
2023/08/25 09:56:40;;;;;;;;;;;;;;;;;;4978768;28;19914;-84
2023/08/25 09:59:08;;;;;;;;;;;;;;;26.84;nan;99851.72;4956849;28;20158;-84
2023/08/25 10:01:34;;;;;;;;;;;;;;;26.68;nan;99842.81;4967256;28;19965;-84
2023/08/25 10:04:01;;;;;;;;;;;;;;;26.62;nan;99839.28;4971844;28;20310;-83
2023/08/25 10:06:31;;;;;;;;;;;;;;;26.56;nan;99823.34;4967826;28;19953;-84
2023/08/25 10:08:57;;;;;;;;;;;;;;;26.40;nan;99820.59;4994848;28;19946;-83
2023/08/25 10:11:24;;;;;;;;;;;;;;;26.25;nan;99815.22;4981036;28;20387;-84
2023/08/25 10:13:54;;;;;;;;;;;;;;;26.12;nan;99829.31;4984920;28;19917;-83
2023/08/25 10:16:20;;;;;;;;;;;;;;;26.01;nan;99840.16;4981428;28;19914;-84
2023/08/25 10:18:46;;;;;;;;;;;;;;;25.90;nan;99854.78;4970071;28;20001;-83
2023/08/25 10:21:13;;;;;;;;;;;;;;;25.89;nan;99861.28;4979727;28;19981;-84
2023/08/25 10:23:39;;;;;;;;;;;;;;;25.85;nan;99879.13;4979270;28;19981;-83
2023/08/25 10:26:05;;;;;;;;;;;;;;;25.67;nan;99871.50;4994568;28;20344;-84
2023/08/25 10:28:30;;;;;;;;;;;;;;;25.61;nan;99878.81;4978957;28;19941;-83
2023/08/25 10:30:56;;;;;;;;;;;;;;;25.49;nan;99879.06;4990440;28;19925;-84
2023/08/25 10:33:22;;;;;;;;;;;;;;;25.46;nan;99908.53;4966960;28;19914;-83
2023/08/25 10:35:48;;;;;;;;;;;;;;;25.52;nan;99908.28;4960663;28;20162;-83
2023/08/25 10:38:19;;;;;;;;;;;;;;;25.51;nan;99898.56;4956705;28;19942;-84
2023/08/25 10:40:51;;;;;;;;;;;;;;;25.51;nan;99901.25;4959140;28;19953;-84
2023/08/25 10:43:33;;;;;;;;;;;;;;;25.43;nan;99893.63;4956382;28;19915;-84
2023/08/25 10:46:02;;;;;;;;;;;;;;;25.42;nan;99897.44;4956341;28;20001;-84
2023/08/25 10:48:27;;;;;;;;;;;;;;;25.26;nan;99887.63;4968971;28;19918;-83
2023/08/25 10:50:53;;;;;;;;;;;;;;;25.16;nan;99877.56;4967618;28;19961;-85
2023/08/25 10:53:37;;;;;;;;;;;;;;;25.15;nan;99886.75;4958586;28;20380;-84
2023/08/25 10:56:18;;;;;;;;;;;;;;;25.19;nan;99890.56;4957471;28;19914;-84
2023/08/25 10:58:56;;;;;;;;;;;;;;;25.11;nan;99896.47;4958067;28;20348;-84
2023/08/25 11:01:42;;;;;;;;;;;;;;;25.08;nan;99892.41;4966155;28;19945;-84
2023/08/25 11:04:11;;;;;;;;;;;;;;;25.12;nan;99889.97;4969140;28;19920;-84
2023/08/25 11:06:44;;;;;;;;;;;;;;;25.22;nan;99887.34;4977131;28;20371;-84
2023/08/25 11:09:21;;;;;;;;;;;;;;;25.29;nan;99865.44;4978246;28;19914;-84
2023/08/25 11:11:54;;;;;;;;;;;;;;;25.58;nan;99880.16;4985902;28;19914;-84
2023/08/25 11:14:29;;;;;;;;;;;;;;;25.83;nan;99892.94;4975546;28;19925;-85
2023/08/25 11:16:56;;;;;;;;;;;;;;;26.23;nan;99888.66;4979002;28;19914;-84
2023/08/25 11:19:21;;;;;;;;;;;;;;;26.61;nan;99908.19;4974359;28;20008;-84
2023/08/25 11:22:07;;;;;;;;;;;;;;;27.09;nan;99888.81;4960315;28;19925;-84
2023/08/25 11:24:33;;;;;;;;;;;;;;;27.84;nan;99890.66;4959460;28;19915;-84
2023/08/25 11:27:05;;;;;;;;;;;;;;;28.54;nan;99904.78;4960861;28;19921;-84
2023/08/25 11:29:31;;;;;;;;;;;;;;;29.59;nan;99904.97;4963043;28;19922;-85
2023/08/25 11:31:56;;;;;;;;;;;;;;;30.42;nan;99896.38;4979980;28;19918;-85
2023/08/25 11:34:22;;;;;;;;;;;;;;;31.19;nan;99859.44;4970548;28;19938;-84
2023/08/25 11:36:47;;;;;;;;;;;;;;;31.78;nan;99895.06;4964027;28;19944;-84
2023/08/25 11:39:17;;;;;;;;;;;;;;;32.09;nan;99914.31;4961958;28;19973;-85
2023/08/25 11:41:43;;;;;;;;;;;;;;;32.36;nan;99907.88;4960277;28;19914;-84
2023/08/25 11:44:10;;;;;;;;;;;;;;;32.67;nan;99913.41;4959532;28;19925;-84
2023/08/25 11:46:35;;;;;;;;;;;;;;;32.87;nan;99901.09;4960202;28;19921;-85
2023/08/25 11:49:00;;;;;;;;;;;;;;;32.97;nan;99900.00;4973264;28;19921;-84
2023/08/25 11:51:26;;;;;;;;;;;;;;;32.13;nan;99896.16;4971728;28;20496;-84
2023/08/25 11:53:52;;;;;;;;;;;;;;;31.42;nan;99895.88;4978588;28;19921;-85
2023/08/25 11:56:19;;;;;;;;;;;;;;;30.61;nan;99888.94;4979998;28;19918;-84
2023/08/25 11:58:48;;;;;;;;;;;;;;;29.92;nan;99883.25;4981464;28;19921;-84
2023/08/25 12:01:14;;;;;;;;;;;;;;;29.47;nan;99879.28;4982456;28;19914;-84
2023/08/25 12:03:39;;;;;;;;;;;;;;;28.85;nan;99877.28;4975344;28;19965;-84
2023/08/25 12:06:05;;;;;;;;;;;;;;;28.20;nan;99868.63;4980956;28;19914;-84
2023/08/25 12:08:31;;;;;;;;;;;;;;;27.92;nan;99880.00;4980466;28;19977;-84
2023/08/25 12:10:56;;;;;;;;;;;;;;;27.66;nan;99883.94;4982971;28;19914;-83
2023/08/25 12:13:31;;;;;;;;;;;;;;;27.43;nan;99893.56;4996983;28;20331;-84
2023/08/25 12:15:57;;;;;;;;;;;;;;;27.25;nan;99895.03;4982230;28;20402;-83
2023/08/25 12:18:23;;;;;;;;;;;;;;;27.08;nan;99915.13;4980356;28;19914;-83
2023/08/25 12:20:48;;;;;;;;;;;;;;;27.00;nan;99914.88;4968982;28;19918;-83
2023/08/25 12:23:14;;;;;;;;;;;;;;;27.00;nan;99888.56;4976753;28;19914;-83
2023/08/25 12:25:42;;;;;;;;;;;;;;;27.05;nan;99885.00;4976391;28;19914;-83
2023/08/25 12:28:07;;;;;;;;;;;;;;;27.16;nan;99885.81;4977968;28;19914;-84
2023/08/25 12:30:33;;;;;;;;;;;;;;;27.12;nan;99863.81;4968666;28;19922;-84
2023/08/25 12:32:58;;;;;;;;;;;;;;;27.12;nan;99866.53;4958273;28;19937;-83
2023/08/25 12:35:23;;;;;;;;;;;;;;;27.20;nan;99866.00;4969503;28;20233;-83
2023/08/25 12:37:48;;;;;;;;;;;;;;;27.21;nan;99862.19;4978799;28;19918;-83
2023/08/25 12:40:14;;;;;;;;;;;;;;;27.16;nan;99859.47;4971154;28;19932;-84
2023/08/25 12:42:39;;;;;;;;;;;;;;;27.18;nan;99856.47;4969816;28;20403;-84
2023/08/25 12:45:05;;;;;;;;;;;;;;;27.13;nan;99859.22;4967279;28;19914;-84
2023/08/25 12:47:30;;;;;;;;;;;;;;;26.97;nan;99858.47;4966005;28;19922;-84
2023/08/25 12:49:55;;;;;;;;;;;;;;;26.83;nan;99861.75;4980533;28;20336;-84
2023/08/25 12:52:20;;;;;;;;;;;;;;;26.63;nan;99861.81;4984186;28;19918;-83
2023/08/25 12:54:45;;;;;;;;;;;;;;;26.53;nan;99872.63;5000743;28;20384;-84
2023/08/25 12:57:11;;;;;;;;;;;;;;;26.45;nan;99860.44;4998671;28;19914;-84
2023/08/25 12:59:36;;;;;;;;;;;;;;;26.38;nan;99858.00;4983618;28;19922;-83
2023/08/25 13:02:01;;;;;;;;;;;;;;;26.45;nan;99866.69;4982807;28;19914;-84
2023/08/25 13:04:26;;;;;;;;;;;;;;;26.41;nan;99879.19;4979496;28;20145;-84
2023/08/25 13:06:54;;;;;;;;;;;;;;;26.43;nan;99865.31;4980742;28;19919;-84
2023/08/25 13:09:20;;;;;;;;;;;;;;;26.47;nan;99872.66;4970719;28;20277;-84
2023/08/25 13:11:45;;;;;;;;;;;;;;;26.54;nan;99875.13;4962848;28;19915;-84
2023/08/25 13:14:10;;;;;;;;;;;;;;;26.69;nan;99871.56;4960977;28;19956;-84